Time;durP1;ratioP1;P1;durP2;ratioP2;P2;SDS_P1;SDS_P2;PMS_P1;PMS_P2;Temp;Humidity;BMP_temperature;BMP_pressure;BME280_temperature;BME280_humidity;BME280_pressure;Samples;Min_cycle;Max_cycle;Signal;HPM_P1;HPM_P2
2022/06/26 00:01:04;;;;;;;8.45;6.05;;;;;;;23.12;63.41;100764.41;5031218;28;20041;-67
2022/06/26 00:03:30;;;;;;;7.38;5.97;;;;;;;23.03;63.58;100765.34;5036695;28;20076;-67
2022/06/26 00:05:56;;;;;;;7.63;5.95;;;;;;;22.95;64.02;100756.47;5024724;28;20119;-67
2022/06/26 00:08:25;;;;;;;7.60;6.00;;;;;;;22.85;64.06;100761.91;5028480;28;20123;-67
2022/06/26 00:10:52;;;;;;;6.80;6.10;;;;;;;22.66;65.16;100759.41;5024285;28;20041;-67
2022/06/26 00:13:18;;;;;;;9.68;6.00;;;;;;;22.67;65.00;100767.31;5021007;28;20065;-67
2022/06/26 00:15:46;;;;;;;11.52;6.43;;;;;;;22.82;64.77;100764.06;5025182;28;20402;-67
2022/06/26 00:18:13;;;;;;;8.65;6.88;;;;;;;22.81;64.79;100765.88;5024146;28;20049;-67
2022/06/26 00:20:39;;;;;;;8.80;6.47;;;;;;;22.89;64.68;100757.91;5023024;28;20118;-67
2022/06/26 00:23:05;;;;;;;8.93;6.32;;;;;;;22.63;65.14;100768.56;5030462;28;20045;-72
2022/06/26 00:25:32;;;;;;;7.40;6.32;;;;;;;22.47;65.86;100762.28;5029210;28;20132;-72
2022/06/26 00:27:59;;;;;;;9.80;6.57;;;;;;;22.83;64.65;100771.09;5022337;28;20045;-72
2022/06/26 00:30:25;;;;;;;8.77;6.50;;;;;;;23.04;63.82;100763.53;5025626;28;20049;-72
2022/06/26 00:32:53;;;;;;;8.30;6.82;;;;;;;23.02;64.39;100765.53;5024136;28;20096;-72
2022/06/26 00:35:20;;;;;;;8.75;6.75;;;;;;;23.03;64.27;100768.03;5022407;28;20052;-72
2022/06/26 00:37:46;;;;;;;7.22;6.13;;;;;;;23.15;63.55;100764.09;5025467;28;20092;-72
2022/06/26 00:40:13;;;;;;;8.85;6.43;;;;;;;23.04;63.91;100759.03;5023640;28;20125;-72
2022/06/26 00:42:39;;;;;;;11.05;6.63;;;;;;;23.21;63.32;100758.09;5024311;28;20049;-72
2022/06/26 00:45:07;;;;;;;7.63;6.60;;;;;;;23.12;63.66;100764.41;5025015;28;20403;-72
2022/06/26 00:47:33;;;;;;;8.43;7.07;;;;;;;23.14;63.93;100758.88;5025257;28;20095;-72
2022/06/26 00:50:01;;;;;;;9.43;6.82;;;;;;;23.23;63.33;100758.78;5023744;28;20049;-72
2022/06/26 00:52:28;;;;;;;13.68;6.78;;;;;;;23.29;63.05;100759.97;5025675;28;20041;-72
2022/06/26 00:54:55;;;;;;;7.00;6.30;;;;;;;22.96;64.46;100756.28;5034225;28;20041;-72
2022/06/26 00:57:22;;;;;;;11.00;7.10;;;;;;;22.68;66.01;100755.63;5019504;28;20127;-72
2022/06/26 00:59:49;;;;;;;8.48;6.90;;;;;;;22.60;65.81;100755.53;5015396;28;20214;-72
2022/06/26 01:02:16;;;;;;;7.40;6.22;;;;;;;22.71;65.35;100752.63;5023868;28;20107;-72
2022/06/26 01:04:43;;;;;;;7.63;6.75;;;;;;;23.05;64.01;100766.06;5022140;28;20115;-72
2022/06/26 01:07:11;;;;;;;6.93;6.28;;;;;;;23.14;63.99;100769.59;5024899;28;20049;-72
2022/06/26 01:09:37;;;;;;;7.00;6.30;;;;;;;22.87;64.70;100764.44;5027780;28;20493;-72
2022/06/26 01:12:04;;;;;;;10.80;6.63;;;;;;;22.79;64.67;100759.88;5042962;28;20119;-72
2022/06/26 01:14:31;;;;;;;9.07;6.50;;;;;;;22.64;65.26;100759.56;5026971;28;20073;-72
2022/06/26 01:16:59;;;;;;;7.65;6.53;;;;;;;22.99;64.10;100763.16;5026203;28;20088;-72
2022/06/26 01:19:26;;;;;;;8.73;6.88;;;;;;;23.05;64.14;100765.22;5025955;28;20072;-72
2022/06/26 01:21:52;;;;;;;7.93;6.72;;;;;;;22.77;65.00;100767.19;5029154;28;20049;-71
2022/06/26 01:24:20;;;;;;;8.52;7.00;;;;;;;22.76;65.26;100758.31;5036144;28;20049;-73
2022/06/26 01:26:46;;;;;;;8.27;7.22;;;;;;;22.53;66.06;100762.50;5027770;28;20417;-72
2022/06/26 01:29:12;;;;;;;8.18;6.97;;;;;;;22.70;65.79;100769.66;5028416;28;20061;-72
2022/06/26 01:31:39;;;;;;;8.38;6.88;;;;;;;22.93;64.85;100764.63;5027760;28;20394;-72
2022/06/26 01:34:07;;;;;;;8.60;6.68;;;;;;;22.91;65.00;100755.91;5028263;28;20732;-73
2022/06/26 01:36:34;;;;;;;7.82;6.63;;;;;;;22.93;65.28;100764.63;5028834;28;20037;-73
2022/06/26 01:39:00;;;;;;;8.75;6.63;;;;;;;22.59;66.09;100763.69;5026953;28;20426;-72
2022/06/26 01:41:28;;;;;;;8.10;6.35;;;;;;;22.74;65.16;100754.16;5027706;28;20107;-72
2022/06/26 01:43:54;;;;;;;8.40;6.20;;;;;;;22.79;64.92;100759.88;5028288;28;20473;-73
2022/06/26 01:46:23;;;;;;;9.90;6.78;;;;;;;22.90;64.39;100745.41;5028163;28;20064;-72
2022/06/26 01:48:49;;;;;;;12.95;6.72;;;;;;;22.71;65.06;100752.63;5025699;28;20052;-72
2022/06/26 01:51:15;;;;;;;10.02;7.20;;;;;;;22.66;64.92;100756.72;5028176;28;20099;-72
2022/06/26 01:53:42;;;;;;;10.25;6.45;;;;;;;22.45;65.31;100758.91;5035779;28;20453;-72
2022/06/26 01:56:09;;;;;;;12.18;7.05;;;;;;;22.35;65.60;100758.16;5030455;28;20049;-72
2022/06/26 01:58:37;;;;;;;7.88;6.72;;;;;;;22.28;66.01;100756.09;5027759;28;20468;-72
2022/06/26 02:01:05;;;;;;;8.40;6.80;;;;;;;22.50;65.30;100757.47;5027074;28;20045;-72
2022/06/26 02:03:31;;;;;;;7.72;6.93;;;;;;;22.94;64.38;100752.94;5026982;28;20049;-72
2022/06/26 02:05:58;;;;;;;8.48;6.22;;;;;;;22.73;65.17;100745.28;5028904;28;20096;-72
2022/06/26 02:08:24;;;;;;;9.57;6.63;;;;;;;22.56;65.36;100746.16;5028002;28;20092;-73
2022/06/26 02:13:40;;;;;;;10.07;7.00;;;;;;;22.33;66.12;100753.81;5027244;28;20048;-74
2022/06/26 02:16:09;;;;;;;7.70;6.93;;;;;;;22.18;66.92;100747.34;5028109;28;20061;-73
2022/06/26 02:18:37;;;;;;;13.68;7.95;;;;;;;21.99;67.93;100755.50;5027723;28;20061;-73
2022/06/26 02:21:05;;;;;;;10.25;6.82;;;;;;;21.75;68.93;100760.56;5025307;28;20469;-73
2022/06/26 02:23:32;;;;;;;10.35;7.00;;;;;;;21.41;70.25;100767.50;5033871;28;20049;-73
2022/06/26 02:25:58;;;;;;;10.25;7.65;;;;;;;21.30;71.13;100771.19;5029017;28;20045;-73
2022/06/26 02:28:25;;;;;;;7.85;6.65;;;;;;;20.86;72.14;100767.41;5024249;28;20091;-73
2022/06/26 02:30:53;;;;;;;8.27;7.22;;;;;;;21.30;70.85;100779.19;5024776;28;20551;-73
2022/06/26 02:33:19;;;;;;;11.75;8.25;;;;;;;21.71;69.84;100785.88;5027322;28;20072;-73
2022/06/26 02:35:47;;;;;;;11.23;7.88;;;;;;;21.43;70.97;100781.53;5026638;28;20458;-73
2022/06/26 02:38:13;;;;;;;12.15;7.50;;;;;;;21.32;71.09;100785.25;5025028;28;20421;-73
2022/06/26 02:40:40;;;;;;;9.35;8.02;;;;;;;21.16;71.46;100791.19;5027670;28;20490;-73
2022/06/26 02:43:06;;;;;;;10.77;7.75;;;;;;;21.48;70.83;100792.59;5026526;28;20043;-73
2022/06/26 02:45:33;;;;;;;10.35;8.55;;;;;;;21.43;70.71;100797.53;5025129;28;20049;-73
2022/06/26 02:48:00;;;;;;;10.48;8.35;;;;;;;21.19;71.51;100801.56;5027632;28;20050;-72
2022/06/26 02:50:27;;;;;;;11.15;8.45;;;;;;;21.45;70.92;100800.88;5025028;28;20107;-72
2022/06/26 02:52:53;;;;;;;13.80;8.38;;;;;;;21.51;70.52;100797.63;5029194;28;20534;-72
2022/06/26 02:55:20;;;;;;;12.13;8.15;;;;;;;21.58;69.88;100802.22;5031002;28;20098;-72
2022/06/26 02:57:46;;;;;;;11.05;8.52;;;;;;;21.48;70.25;100811.25;5026036;28;20050;-73
2022/06/26 03:00:14;;;;;;;9.85;7.40;;;;;;;21.62;70.10;100802.75;5026502;28;20041;-73
2022/06/26 03:02:40;;;;;;;13.18;8.23;;;;;;;21.77;69.11;100804.78;5027462;28;20049;-73
2022/06/26 03:05:09;;;;;;;8.98;7.70;;;;;;;21.44;70.57;100799.19;5025060;28;20045;-73
2022/06/26 03:07:36;;;;;;;8.68;7.13;;;;;;;21.42;70.96;100798.53;5025110;28;20091;-73
2022/06/26 03:10:02;;;;;;;10.82;7.65;;;;;;;21.16;72.12;100791.19;5022633;28;20556;-73
2022/06/26 03:12:29;;;;;;;12.65;7.93;;;;;;;21.60;70.80;100799.41;5006206;28;20046;-73
2022/06/26 03:14:55;;;;;;;15.23;8.15;;;;;;;21.71;70.41;100796.53;5022681;28;20045;-73
2022/06/26 03:17:22;;;;;;;12.52;8.00;;;;;;;21.84;70.08;100805.03;5025728;28;20054;-73
2022/06/26 03:19:48;;;;;;;9.35;7.60;;;;;;;21.81;69.76;100802.66;5025067;28;20501;-73
2022/06/26 03:22:16;;;;;;;12.38;8.05;;;;;;;22.10;68.74;100814.00;5027452;28;20517;-73
2022/06/26 03:24:42;;;;;;;10.50;7.50;;;;;;;21.82;70.11;100809.69;5025615;28;20053;-73
2022/06/26 03:27:09;;;;;;;10.07;7.60;;;;;;;21.74;70.50;100812.25;5025222;28;20045;-73
2022/06/26 03:29:35;;;;;;;11.82;7.75;;;;;;;21.49;71.57;100805.78;5026078;28;20108;-73
2022/06/26 03:32:01;;;;;;;8.95;7.30;;;;;;;21.74;70.72;100817.59;5024734;28;20103;-73
2022/06/26 03:34:28;;;;;;;9.02;7.38;;;;;;;21.76;70.44;100820.97;5025178;28;20049;-73
2022/06/26 03:36:54;;;;;;;10.55;6.95;;;;;;;21.93;70.05;100822.84;5024642;28;20045;-73
2022/06/26 03:39:22;;;;;;;10.02;7.25;;;;;;;22.24;68.67;100821.53;5033327;28;20096;-73
2022/06/26 03:42:00;;;;;;;11.18;7.45;;;;;;;22.47;67.70;100821.06;5018453;28;20053;-73
2022/06/26 03:44:27;;;;;;;9.05;7.60;;;;;;;22.75;66.47;100823.50;5024143;28;20577;-73
2022/06/26 03:46:53;;;;;;;8.27;7.47;;;;;;;22.99;65.58;100828.19;5026517;28;20046;-73
2022/06/26 03:49:20;;;;;;;9.65;7.15;;;;;;;23.02;65.12;100829.72;5021506;28;20037;-73
2022/06/26 03:51:46;;;;;;;8.82;7.05;;;;;;;22.77;66.11;100831.34;5004595;28;20107;-73
2022/06/26 03:54:12;;;;;;;8.02;7.00;;;;;;;23.07;65.06;100830.91;5026063;28;20049;-73
2022/06/26 03:56:40;;;;;;;9.43;7.00;;;;;;;22.42;67.62;100840.22;5025082;28;20053;-73
2022/06/26 03:59:07;;;;;;;9.13;7.38;;;;;;;21.79;69.91;100829.53;5022584;28;20049;-73
2022/06/26 04:01:33;;;;;;;8.73;7.07;;;;;;;22.65;67.43;100840.59;5025990;28;20064;-72
2022/06/26 04:03:59;;;;;;;10.55;7.40;;;;;;;22.73;66.70;100835.31;5023419;28;20033;-73
2022/06/26 04:06:26;;;;;;;11.48;8.00;;;;;;;22.55;67.27;100838.00;5024935;28;20072;-73
2022/06/26 04:08:53;;;;;;;10.30;7.97;;;;;;;22.22;68.16;100834.19;5044042;28;20045;-74
2022/06/26 04:11:19;;;;;;;15.10;8.05;;;;;;;21.97;69.53;100840.25;5044885;28;20049;-74
2022/06/26 04:13:49;;;;;;;9.20;7.57;;;;;;;21.49;71.00;100836.97;5042025;28;20724;-74
2022/06/26 04:16:15;;;;;;;10.65;8.75;;;;;;;21.82;70.46;100834.56;5024668;28;20052;-74
2022/06/26 04:18:41;;;;;;;8.88;7.60;;;;;;;21.86;69.76;100835.09;5022736;28;20686;-74
2022/06/26 04:21:08;;;;;;;11.35;7.90;;;;;;;22.28;69.27;100844.25;5024833;28;20094;-74
2022/06/26 04:23:34;;;;;;;10.30;7.85;;;;;;;22.14;69.19;100841.25;5026452;28;20049;-73
2022/06/26 04:26:00;;;;;;;10.57;8.05;;;;;;;22.69;67.22;100842.81;5023682;28;20091;-73
2022/06/26 04:28:27;;;;;;;11.05;7.30;;;;;;;22.64;67.23;100846.94;5023317;28;20490;-73
2022/06/26 04:30:54;;;;;;;10.35;7.45;;;;;;;22.49;67.65;100845.78;5032708;28;20049;-74
2022/06/26 04:33:21;;;;;;;8.82;7.28;;;;;;;22.48;68.39;100844.09;5024443;28;20049;-73
2022/06/26 04:35:47;;;;;;;8.63;7.50;;;;;;;23.04;66.53;100846.44;5035366;28;20037;-73
2022/06/26 04:38:13;;;;;;;11.50;7.43;;;;;;;23.15;65.87;100843.50;5045723;28;20782;-73
2022/06/26 04:40:40;;;;;;;13.65;7.30;;;;;;;23.29;64.90;100843.75;5043129;28;20049;-73
2022/06/26 04:43:07;;;;;;;9.52;7.00;;;;;;;23.43;64.48;100839.66;5045334;28;20067;-73
2022/06/26 04:45:33;;;;;;;10.40;7.25;;;;;;;22.97;66.15;100846.22;5024465;28;20080;-73
2022/06/26 04:48:01;;;;;;;8.75;7.30;;;;;;;23.11;65.92;100842.97;5024737;28;20045;-73
2022/06/26 04:50:27;;;;;;;10.25;7.72;;;;;;;23.65;64.28;100841.78;5029767;28;20133;-73
2022/06/26 04:52:54;;;;;;;8.18;7.22;;;;;;;23.31;65.56;100840.09;5023447;28;20038;-73
2022/06/26 04:55:20;;;;;;;15.82;7.60;;;;;;;23.27;65.09;100845.75;5024543;28;20100;-73
2022/06/26 04:57:46;;;;;;;9.13;7.72;;;;;;;23.57;63.28;100844.44;5024071;28;20452;-73
2022/06/26 05:00:15;;;;;;;15.90;8.05;;;;;;;23.11;65.08;100851.00;5021759;28;20464;-71
2022/06/26 05:02:41;;;;;;;10.20;7.18;;;;;;;23.51;64.90;100846.91;5023840;28;20049;-71
2022/06/26 05:05:09;;;;;;;12.48;6.95;;;;;;;23.24;65.24;100845.25;5045366;28;20060;-71
2022/06/26 05:07:35;;;;;;;8.40;6.53;;;;;;;23.37;65.19;100855.50;5044029;28;20049;-70
2022/06/26 05:10:02;;;;;;;8.18;7.18;;;;;;;24.05;62.57;100843.78;5043077;28;20040;-70
2022/06/26 05:12:28;;;;;;;14.85;7.38;;;;;;;23.81;63.89;100850.88;5044432;28;20072;-70
2022/06/26 05:14:55;;;;;;;8.85;6.75;;;;;;;24.15;62.80;100855.22;5029844;28;20143;-70
2022/06/26 05:17:21;;;;;;;8.02;6.65;;;;;;;24.51;62.09;100852.25;5023661;28;20437;-70
2022/06/26 05:19:47;;;;;;;7.88;6.38;;;;;;;25.13;60.37;100856.09;5024351;28;20474;-70
2022/06/26 05:22:15;;;;;;;7.95;6.07;;;;;;;24.90;60.37;100860.50;5022754;28;20568;-71
2022/06/26 05:24:42;;;;;;;9.02;6.70;;;;;;;25.29;59.29;100856.09;5022584;28;20588;-71
2022/06/26 05:27:09;;;;;;;7.68;5.90;;;;;;;25.61;57.46;100860.53;5026213;28;20099;-67
2022/06/26 05:29:35;;;;;;;9.80;5.78;;;;;;;25.38;58.55;100859.59;5021119;28;20099;-67
2022/06/26 05:32:01;;;;;;;9.00;6.07;;;;;;;24.88;59.81;100865.19;5023951;28;20049;-66
2022/06/26 05:34:28;;;;;;;7.97;5.20;;;;;;;25.41;59.20;100857.41;5023078;28;20111;-66
2022/06/26 05:36:54;;;;;;;7.03;5.40;;;;;;;25.56;57.85;100852.19;5023376;28;20547;-66
2022/06/26 05:39:22;;;;;;;8.82;5.32;;;;;;;26.46;55.78;100856.91;5022641;28;20087;-67
2022/06/26 05:41:48;;;;;;;9.35;5.30;;;;;;;27.03;54.68;100859.19;5023928;28;20127;-67
2022/06/26 05:44:14;;;;;;;6.93;4.82;;;;;;;27.27;53.88;100867.00;5023785;28;20176;-67
2022/06/26 05:46:42;;;;;;;8.65;5.05;;;;;;;26.54;53.83;100864.09;5022813;28;20042;-67
2022/06/26 05:49:08;;;;;;;9.65;4.88;;;;;;;27.09;52.90;100861.13;5020928;28;20048;-67
2022/06/26 05:51:34;;;;;;;7.38;5.00;;;;;;;27.48;51.54;100856.38;5032063;28;20057;-67
2022/06/26 05:54:01;;;;;;;6.90;4.55;;;;;;;27.40;52.25;100860.97;5024537;28;20137;-67
2022/06/26 05:56:28;;;;;;;6.18;4.00;;;;;;;28.04;51.33;100860.22;5024641;28;20107;-67
2022/06/26 05:58:55;;;;;;;5.90;4.32;;;;;;;28.76;48.11;100865.56;5021565;28;20049;-66
2022/06/26 06:01:21;;;;;;;9.25;4.38;;;;;;;29.13;47.24;100860.88;5023848;28;20052;-66
2022/06/26 06:03:47;;;;;;;7.60;4.22;;;;;;;27.56;50.31;100855.47;5026822;28;20049;-66
2022/06/26 06:06:14;;;;;;;10.57;4.15;;;;;;;27.12;51.59;100865.31;5027382;28;20061;-65
2022/06/26 06:08:40;;;;;;;6.78;4.38;;;;;;;27.12;51.74;100863.47;5027312;28;20046;-66
2022/06/26 06:11:07;;;;;;;7.80;4.32;;;;;;;27.22;52.18;100860.50;5027956;28;20038;-66
2022/06/26 06:13:34;;;;;;;6.28;4.05;;;;;;;27.82;50.74;100861.19;5024758;28;20187;-66
2022/06/26 06:16:00;;;;;;;7.43;4.10;;;;;;;28.57;47.77;100870.75;5028022;28;20418;-65
2022/06/26 06:18:27;;;;;;;8.38;3.90;;;;;;;28.59;48.39;100858.75;5026477;28;20060;-65
2022/06/26 06:20:53;;;;;;;3.95;3.55;;;;;;;29.25;45.61;100857.44;5025380;28;20091;-66
2022/06/26 06:23:20;;;;;;;4.20;3.50;;;;;;;29.12;46.50;100864.63;5027686;28;20103;-65
2022/06/26 06:25:46;;;;;;;5.18;3.80;;;;;;;29.12;46.54;100860.03;5027840;28;20115;-66
2022/06/26 06:28:12;;;;;;;4.50;3.60;;;;;;;29.78;44.03;100863.19;5032266;28;20056;-65
2022/06/26 06:30:40;;;;;;;5.07;4.25;;;;;;;29.45;45.13;100871.94;5027677;28;20402;-65
2022/06/26 06:33:06;;;;;;;5.10;3.85;;;;;;;28.88;47.43;100869.44;5029560;28;20526;-71
2022/06/26 06:35:33;;;;;;;4.57;4.18;;;;;;;29.49;46.96;100870.50;5025718;28;20464;-71
2022/06/26 06:37:59;;;;;;;7.22;4.35;;;;;;;29.89;46.21;100868.06;5027616;28;20045;-71
2022/06/26 06:40:26;;;;;;;6.18;4.78;;;;;;;30.75;45.58;100875.34;5007465;28;20139;-73
2022/06/26 06:42:52;;;;;;;5.18;4.43;;;;;;;31.09;42.95;100876.22;5026685;28;20485;-72
2022/06/26 06:45:18;;;;;;;4.97;3.83;;;;;;;31.35;42.64;100877.03;5028591;28;20042;-72
2022/06/26 06:47:46;;;;;;;6.28;4.72;;;;;;;31.47;42.27;100879.91;5027542;28;20049;-72
2022/06/26 06:50:12;;;;;;;7.25;4.65;;;;;;;30.77;43.78;100884.13;5026175;28;20045;-73
2022/06/26 06:52:39;;;;;;;8.95;4.40;;;;;;;31.76;42.05;100878.63;5027261;28;20103;-73
2022/06/26 06:55:06;;;;;;;4.80;4.25;;;;;;;31.72;43.15;100871.94;5026606;28;20095;-73
2022/06/26 06:57:33;;;;;;;9.07;4.30;;;;;;;31.09;44.17;100877.06;5027568;28;20091;-72
2022/06/26 06:59:59;;;;;;;4.50;3.97;;;;;;;31.66;41.07;100884.50;5025959;28;20057;-72
2022/06/26 07:02:26;;;;;;;4.38;3.95;;;;;;;31.37;40.72;100884.94;5027542;28;20045;-72
2022/06/26 07:04:53;;;;;;;5.20;3.95;;;;;;;31.52;43.86;100877.44;5027139;28;20567;-72
2022/06/26 07:07:20;;;;;;;6.20;3.90;;;;;;;31.24;40.92;100874.13;5030808;28;20069;-72
2022/06/26 07:09:46;;;;;;;10.25;4.18;;;;;;;31.41;42.08;100878.06;5034941;28;20056;-72
2022/06/26 07:12:13;;;;;;;6.07;4.60;;;;;;;32.05;40.61;100879.94;5037025;28;20048;-72
2022/06/26 07:14:39;;;;;;;4.25;3.80;;;;;;;32.20;41.26;100884.09;5024536;28;20054;-72
2022/06/26 07:17:05;;;;;;;4.38;3.97;;;;;;;31.75;40.09;100891.34;5025243;28;20049;-65
2022/06/26 07:19:32;;;;;;;5.38;3.63;;;;;;;31.83;39.98;100884.84;5027471;28;20451;-65
2022/06/26 07:22:00;;;;;;;4.32;3.40;;;;;;;32.29;38.33;100881.97;5030568;28;20103;-65
2022/06/26 07:24:27;;;;;;;6.43;3.80;;;;;;;31.97;39.73;100881.03;5029453;28;20049;-65
2022/06/26 07:26:53;;;;;;;10.77;4.43;;;;;;;32.95;37.72;100881.50;5029086;28;20493;-65
2022/06/26 07:29:20;;;;;;;5.28;3.83;;;;;;;31.53;39.57;100884.50;5035795;28;20041;-65
2022/06/26 07:31:46;;;;;;;5.55;4.20;;;;;;;31.34;42.19;100886.19;5033826;28;20045;-65
2022/06/26 07:34:16;;;;;;;6.10;3.85;;;;;;;32.04;39.42;100875.59;5041344;28;20147;-65
2022/06/26 07:36:44;;;;;;;4.53;3.75;;;;;;;31.76;42.31;100879.44;5033455;28;20524;-65
2022/06/26 07:39:13;;;;;;;5.22;3.75;;;;;;;32.10;39.67;100880.19;5023531;28;20049;-65
2022/06/26 07:41:40;;;;;;;5.00;4.05;;;;;;;32.14;39.54;100875.97;5025865;28;20060;-64
2022/06/26 07:44:07;;;;;;;4.88;4.00;;;;;;;32.55;38.00;100878.25;5030820;28;20049;-64
2022/06/26 07:46:34;;;;;;;5.28;3.90;;;;;;;32.72;39.95;100869.38;5024286;28;20049;-64
2022/06/26 07:49:01;;;;;;;9.05;4.15;;;;;;;33.02;39.47;100876.84;5023688;28;20148;-64
2022/06/26 07:51:27;;;;;;;13.10;3.78;;;;;;;33.75;38.11;100875.94;5026401;28;20061;-64
2022/06/26 07:53:54;;;;;;;5.15;3.83;;;;;;;34.17;35.57;100873.34;5004474;28;20073;-64
2022/06/26 07:56:22;;;;;;;5.32;3.70;;;;;;;33.98;39.11;100877.13;5004926;28;20081;-65
2022/06/26 07:58:49;;;;;;;7.03;3.63;;;;;;;33.74;35.90;100887.03;5023485;28;20065;-64
2022/06/26 08:01:15;;;;;;;3.95;2.80;;;;;;;34.07;34.63;100886.66;5026106;28;20410;-64
2022/06/26 08:03:42;;;;;;;6.93;3.08;;;;;;;34.26;33.69;100893.72;5040940;28;20187;-64
2022/06/26 08:06:08;;;;;;;5.88;3.05;;;;;;;35.07;33.30;100891.22;5024430;28;20041;-64
2022/06/26 08:08:34;;;;;;;3.50;2.90;;;;;;;35.18;32.06;100886.91;5021637;28;20049;-64
2022/06/26 08:11:01;;;;;;;5.35;3.10;;;;;;;35.11;32.84;100892.41;5024259;28;20434;-64
2022/06/26 08:13:28;;;;;;;4.05;3.20;;;;;;;34.37;33.99;100892.94;5037117;28;20563;-64
2022/06/26 08:15:55;;;;;;;2.95;2.10;;;;;;;32.88;32.37;100894.31;5042318;28;20036;-64
2022/06/26 08:18:21;;;;;;;4.10;2.20;;;;;;;34.04;31.44;100893.34;5031513;28;20041;-64
2022/06/26 08:20:47;;;;;;;4.90;2.28;;;;;;;35.17;30.21;100891.53;5039928;28;20607;-64
2022/06/26 08:23:13;;;;;;;3.83;2.30;;;;;;;35.49;28.44;100889.22;5043202;28;20063;-64
2022/06/26 08:25:40;;;;;;;6.57;2.30;;;;;;;36.32;30.11;100882.53;5037877;28;20049;-64
2022/06/26 08:28:07;;;;;;;2.20;2.00;;;;;;;35.98;28.66;100900.66;5016539;28;20489;-65
2022/06/26 08:30:35;;;;;;;3.92;2.25;;;;;;;36.44;27.72;100894.22;5028815;28;20050;-65
2022/06/26 08:33:01;;;;;;;3.75;2.72;;;;;;;36.30;27.61;100892.84;5032978;28;20109;-65
2022/06/26 08:35:28;;;;;;;3.00;2.25;;;;;;;35.68;29.34;100887.22;5031483;28;20095;-65
2022/06/26 08:37:55;;;;;;;4.55;2.40;;;;;;;36.48;30.05;100888.00;5034794;28;20117;-65
2022/06/26 08:40:22;;;;;;;2.55;2.10;;;;;;;36.62;29.01;100893.22;5031016;28;20398;-65
2022/06/26 08:42:52;;;;;;;2.65;2.45;;;;;;;36.39;28.99;100885.94;5023096;28;20068;-65
2022/06/26 08:45:20;;;;;;;3.70;2.83;;;;;;;34.54;30.84;100893.13;5024818;28;20045;-65
2022/06/26 08:47:50;;;;;;;4.10;2.60;;;;;;;35.42;30.26;100893.16;5027791;28;20045;-64
2022/06/26 08:50:20;;;;;;;4.20;2.60;;;;;;;35.92;28.67;100893.47;5044173;28;20541;-64
2022/06/26 08:52:47;;;;;;;3.38;2.40;;;;;;;36.92;26.84;100878.13;5028647;28;20387;-69
2022/06/26 08:55:14;;;;;;;3.85;2.80;;;;;;;35.07;28.88;100896.66;5035924;28;20056;-68
2022/06/26 08:57:41;;;;;;;7.75;2.70;;;;;;;36.14;29.62;100886.31;5028925;28;20041;-68
2022/06/26 09:00:08;;;;;;;2.70;2.47;;;;;;;36.73;27.93;100889.59;5029832;28;20045;-68
2022/06/26 09:02:35;;;;;;;3.63;2.78;;;;;;;36.33;28.13;100886.91;5026243;28;20041;-68
2022/06/26 09:05:02;;;;;;;5.65;2.67;;;;;;;36.53;28.54;100882.66;5043457;28;20049;-68
2022/06/26 09:07:30;;;;;;;8.30;2.75;;;;;;;36.44;26.92;100886.84;5026444;28;20103;-69
2022/06/26 09:09:56;;;;;;;8.30;2.13;;;;;;;35.10;27.32;100885.31;5027552;28;20045;-68
2022/06/26 09:12:22;;;;;;;3.97;2.13;;;;;;;36.30;26.86;100880.03;5034566;28;20053;-69
2022/06/26 09:14:52;;;;;;;3.45;2.22;;;;;;;36.01;27.26;100887.38;5023895;28;20073;-69
2022/06/26 09:17:22;;;;;;;6.90;2.40;;;;;;;35.98;28.95;100882.41;5022435;28;20041;-69
2022/06/26 09:19:51;;;;;;;5.43;2.22;;;;;;;35.80;25.57;100879.00;5023821;28;20084;-68
2022/06/26 09:22:22;;;;;;;5.20;1.92;;;;;;;35.38;24.86;100884.63;5023281;28;20195;-68
2022/06/26 09:24:54;;;;;;;2.38;1.50;;;;;;;35.56;25.88;100892.66;5023693;28;20045;-68
2022/06/26 09:27:21;;;;;;;3.83;1.67;;;;;;;35.21;25.75;100886.41;5018743;28;20125;-68
2022/06/26 09:29:49;;;;;;;2.65;1.70;;;;;;;35.04;25.70;100885.41;5023602;28;20397;-68
2022/06/26 09:32:17;;;;;;;5.38;2.08;;;;;;;34.72;27.90;100889.53;5024187;28;20049;-68
2022/06/26 09:34:46;;;;;;;3.70;2.00;;;;;;;34.41;28.08;100876.97;5022905;28;20049;-68
2022/06/26 09:37:12;;;;;;;2.85;1.90;;;;;;;34.46;28.45;100882.56;5022757;28;20495;-68
2022/06/26 09:39:40;;;;;;;2.33;1.80;;;;;;;34.55;27.96;100879.25;5026482;28;20072;-68
2022/06/26 09:42:27;;;;;;;2.92;1.60;;;;;;;34.37;27.09;100887.50;5025250;28;20033;-68
2022/06/26 09:44:55;;;;;;;5.97;1.80;;;;;;;34.68;28.11;100887.28;5027139;28;20056;-69
2022/06/26 09:47:24;;;;;;;2.30;1.63;;;;;;;35.75;28.23;100884.34;5028444;28;20041;-69
2022/06/26 09:49:52;;;;;;;2.97;1.50;;;;;;;35.87;27.07;100885.16;5024639;28;20800;-69
2022/06/26 09:52:19;;;;;;;3.88;2.05;;;;;;;36.54;23.88;100881.59;5029077;28;20512;-69
2022/06/26 09:54:47;;;;;;;4.45;2.20;;;;;;;36.64;24.17;100880.97;5027332;28;20046;-69
2022/06/26 09:57:15;;;;;;;5.35;2.22;;;;;;;36.89;25.95;100877.81;5022884;28;20064;-69
2022/06/26 09:59:42;;;;;;;3.40;1.60;;;;;;;37.08;21.87;100872.94;5026983;28;20080;-69
2022/06/26 10:07:44;;;;;;;2.22;1.30;;;;;;;37.96;20.46;100868.19;5040942;28;20512;-68
2022/06/26 10:10:12;;;;;;;3.45;1.88;;;;;;;37.85;22.00;100866.38;5045190;28;20094;-68
2022/06/26 10:12:39;;;;;;;2.45;1.50;;;;;;;37.88;23.29;100871.34;5027623;28;20042;-68
2022/06/26 10:15:07;;;;;;;4.72;1.90;;;;;;;38.01;22.11;100870.16;5025708;28;20123;-68
2022/06/26 10:17:58;;;;;;;4.05;1.60;;;;;;;38.06;21.61;100874.88;5028463;28;20049;-69
2022/06/26 10:20:25;;;;;;;2.55;1.80;;;;;;;38.31;21.93;100875.13;5024339;28;20045;-69
2022/06/26 10:22:51;;;;;;;2.67;1.70;;;;;;;38.22;22.20;100876.66;5037548;28;20041;-69
2022/06/26 10:25:24;;;;;;;3.45;1.90;;;;;;;38.02;23.52;100876.47;5048004;28;20094;-68
2022/06/26 10:27:50;;;;;;;2.30;1.63;;;;;;;37.72;22.38;100865.94;5034844;28;20041;-68
2022/06/26 10:30:18;;;;;;;5.22;2.20;;;;;;;38.37;23.72;100872.19;5026352;28;20467;-68
2022/06/26 10:32:46;;;;;;;3.58;1.90;;;;;;;38.83;25.54;100868.00;5026500;28;20046;-68
2022/06/26 10:35:14;;;;;;;5.97;1.85;;;;;;;38.45;22.74;100874.50;5025011;28;20139;-68
2022/06/26 10:37:43;;;;;;;8.10;1.83;;;;;;;38.08;22.09;100870.78;5028702;28;20041;-68
2022/06/26 10:42:52;;;;;;;2.90;1.83;;;;;;;35.01;24.80;100883.16;5027578;28;20049;-68
2022/06/26 10:43:02;;;;;;;2.35;1.70;;;;;;;33.58;27.03;100880.28;5019036;28;20417;-68
2022/06/26 10:45:31;;;;;;;2.10;1.85;;;;;;;33.68;27.50;100886.06;5024479;28;20458;-68
2022/06/26 10:47:59;;;;;;;5.18;1.90;;;;;;;35.20;27.01;100881.19;5025598;28;20601;-68
2022/06/26 10:50:32;;;;;;;3.10;1.88;;;;;;;35.49;25.52;100881.06;5024148;28;20108;-68
2022/06/26 10:53:17;;;;;;;3.75;1.95;;;;;;;35.67;24.76;100871.91;5029853;28;20044;-69
2022/06/26 10:55:46;;;;;;;3.70;1.90;;;;;;;36.37;23.82;100872.50;5034261;28;20482;-69
2022/06/26 10:58:20;;;;;;;5.05;1.90;;;;;;;36.52;24.82;100878.25;5011380;28;20519;-68
2022/06/26 11:00:47;;;;;;;4.70;2.03;;;;;;;37.03;23.27;100865.47;5019521;28;20502;-69
2022/06/26 11:03:14;;;;;;;3.60;1.85;;;;;;;36.89;24.50;100869.59;5024755;28;20045;-68
2022/06/26 11:05:50;;;;;;;2.30;1.50;;;;;;;36.79;24.36;100870.28;5023528;28;20049;-68
2022/06/26 11:08:23;;;;;;;2.47;1.63;;;;;;;36.49;22.36;100856.06;5021773;28;20472;-68
2022/06/26 11:10:49;;;;;;;2.47;1.63;;;;;;;35.77;23.22;100868.59;5019446;28;20387;-69
2022/06/26 11:13:17;;;;;;;4.43;1.70;;;;;;;35.64;24.53;100864.22;5038659;28;20515;-68
2022/06/26 11:15:44;;;;;;;6.05;1.83;;;;;;;36.13;23.09;100857.34;5045806;28;20094;-68
2022/06/26 11:18:11;;;;;;;5.30;2.20;;;;;;;36.43;22.77;100865.25;5047451;28;20048;-68
2022/06/26 11:20:50;;;;;;;5.47;2.22;;;;;;;37.50;25.09;100857.72;5035813;28;20517;-68
2022/06/26 11:23:22;;;;;;;1.90;1.50;;;;;;;36.73;22.03;100873.19;5025224;28;20049;-68
2022/06/26 11:25:50;;;;;;;6.55;1.67;;;;;;;36.63;23.53;100868.34;5026381;28;20046;-68
2022/06/26 11:28:18;;;;;;;2.30;1.55;;;;;;;36.40;24.17;100866.56;5026264;28;20095;-69
2022/06/26 11:30:47;;;;;;;3.45;1.63;;;;;;;36.56;23.18;100857.59;5025824;28;20571;-68
2022/06/26 11:33:22;;;;;;;4.43;1.80;;;;;;;36.85;23.11;100861.06;5024519;28;20046;-68